Ana Sayfa
METAR-TAF:

METAR-TAF

Havaalanları :

Sanya Phoenix Uluslararası Havalimanı

Sanya, Çin

Enlem: 18-18N, Boylam: 109-24E, yükseklik: 27 m

Güncel hava durumu gözlemi

Rapor saat 08:00 UTC de 29 dakika önce yapıldı.
Rüzgar güneybatıdan 10 kt, güney ve batı arasında değişken
Sıcaklık 32°C
Nem 75%
Basınç 1007 hPa
Görüş mesafesi 10 km veya daha fazla
2000 ft yükseklikte az bulutlu

METAR: ZJSY 250800Z 23005MPS 190V270 9999 FEW020 32/27 Q1007 NOSIG

Saat: 16:29 (08:29 UTC)

Tahmin

Rapor saat 03:02 UTC de 5 saat ve 27 dakika önce yapıldı.
Ayın 25'si saat 06 UTC'den ayın 26'si saat 06 UTC'ye kadar geçerli Tahmin
Rüzgar güneydan 8 kt
Görüş mesafesi 10 km veya daha fazla
2000 ft yükseklikte az bulutlu
Geçici
ayın 25'si saat 22 UTC'den ayın 26'si saat 04 UTC'ye kadar
1800 ft yükseklikte parçalı bulutlu
2500 ft yükseklikte az bulutlu, Kümülonimbus.

TAF: ZJSY 250302Z 2506/2606 18004MPS 9999 FEW020 TX33/2506Z TN28/2521Z TEMPO 2522/2604 SCT018 FEW025CB

4.000'den fazla havaalanı için hava durumu gözlemleri ve tahminleri (METAR ve TAF raporları).

Kullanılabilir istasyonlar harita üzerinde sarı ve kırmızı noktalarla gösterilir.

İstasyonun adını görmek için fareyi noktanın üzerinde gezdirin.

Sonrasında hava gözlem ve tahminlerini görmek için tıklayın.

Haritayı değiştirmek için: yaklaştırmak için siyah artı işaretli yeşil düğmeye ve uzaklaştırmak için de eksi işaretli düğmeye hızla tıklayın; bitişik haritalar için yeşil okları kullanın.


METAR-TAF: